Terminal Aerodrome Forecast
Issued by NWS Sioux Falls, SD

Home | Current Version | Previous Version | Text Only | Print | Product List | Glossary Off
Versions: 1 2 3 4 5 6 7 8 9 10 11 12 13 14 15 16 17 18 19

000
FTUS43 KFSD 291506 AAC
TAFFSD
TAF AMD
KFSD 291506Z 2915/3012 34008KT P6SM -RA SCT010 OVC100
     FM291700 36012G18KT P6SM SCT012 OVC020
     FM291900 01018G25KT P6SM OVC015
     FM300100 01013KT P6SM SCT030 BKN200
     FM300800 36008KT P6SM SCT200=

USA.gov is the U.S. government's official web portal to all federal, state and local government web resources and services.